L'Héraultaise - 05/04/2015

138 km


Pl Do. Nom - Surname Prénom - Name S-Cat /cat Club - Team TEMPS - Time Km/h /sx NAISSANCE CP
1 474 POTTIER CYRILLE MC 1 team sprinters tropeziens 03:41:39 37,36 1 1974 83300
2 875 COUFFIGNAL MATHIEU MB 1 team montagnac ac 03:41:39 37,35 2 1982 34770
3 873 COUFFIGNAL VINCENT MB 2 team montagnac ac 03:41:40 37,35 3 1982 34770
4 852 CARLIER ALEXIS MA 1 team martigues sc-drag bicycles 03:41:42 37,35 4 1994 6130
5 74 CHAVANON JEAN LUC MD 1 patrouille eco cyclo 03:44:22 36,9 5 1964  
6 453 CHEYLAN STEPHANE MC 2 team velo 101 03:44:22 36,9 6 1970  
7 859 SOLA CAMILLE MB 3 team montagnac ac 03:44:22 36,9 7 1983 34150
8 854 TOUBOUL STEEVE MA 2 team montagnac ac 03:49:14 36,12 8 1990 30660
9 438 SARTORI JÉROME MC 3 cprs pins justaret villatte 03:49:14 36,12 9 1973 31270
10 842 ROUX BENJAMIN MA 3 team sprinters tropeziens 03:49:15 36,12 10 2015 83420
11 831 CARAMEL MAXIME MA 4 team montagnac ac 03:49:22 36,1 11 1989 34700
12 837 CHERIAUX ADRIEN MA 5 team sprinters tropeziens 03:49:28 36,08 12 1990 83420
13 520 BELLAJ SAAD MC 4 elan cycliste balarucois 03:49:28 36,08 13 1970 34110
14 828 MARTINS CEDRIC MA 6 team velo 101 03:49:56 36,01 14 1986  
15 529 KUSS OLIVIER MC 5 les baroudeurs de ligny 03:50:03 35,99 15 1970  
16 71 DANIS CHRISTOPHE MD 2   03:50:03 35,99 16 1957 30190
17 77 FULCRAND GUY ME 1 team montagnac ac 03:50:04 35,99 17 1952 12100
18 2 HUPEL YVES MD 3 vtt fun club 03:50:04 35,99 18 1963 54500
19 841 BLUM GUILLAUME MB 4 vélo club de tahiti 03:50:05 35,98 19 1985 1932
20 48 BLEUSE BRUNO MD 4 roue d or sanaryenne 03:50:25 35,93 20 1962 83640
21 857 OULES FABIEN MB 5 rour d'or sanaryenne 03:51:38 35,75 21 1984 83220
22 806 LOPEZ DORIAN MB 6 team roue d or sanary 03:53:40 35,43 22 1984 83200
23 8 WESSELS FRANS MD 5   03:53:40 35,43 23 1964 4905an
24 158 CHABERT DOMINIQUE MD 6 sprinter club de nîmes 03:53:42 35,43 24 1965 30900
25 878 RAMON MICHAËL MB 7 velo club melgorien mauguio carnon 03:54:45 35,27 25 1985  
26 824 FEITO DANIEL MA 7 rimo-construcciones paulino 03:54:46 35,27 26 1986 33213
27 56 AUWERS SUS ME 2 entente cycliste de wallonie uci:bel19550224 n° 410142 03:54:46 35,27 27 1955 2290
28 417 BIAGETTI DAVID MC 6 istres sport cyclisme 03:54:47 35,27 28 1969 13270
29 146 FATTORE RAYMOND MD 7 vtt du garlaban 03:54:47 35,27 29 1958 aubagne
30 473 NIGEL FORDE MC 7   03:54:47 35,26 30 1975  
31 415 ROSSÉ OLIVIER MC 8 cprs pins justaret villate 03:54:47 35,26 31 1973 31860
32 429 FONTENIT FREDERIC MC 9 cocgp30 03:54:49 35,26 32 1972 30320
33 409 ROUSTIT PHILIPPE MC 10   03:54:49 35,26 33 1967 34500
34 845 SARROU LUDOVIC MB 8 Élan cycliste balarucois 03:54:49 35,26 34 1976 34540
35 470 TAIBI CHRISTOPHE MC 11 la roue d'or marignane 03:54:49 35,26 35 1971 13127
36 428 PETERS RICHARD MC 12 cyclo club rivesaltes 03:54:49 35,26 36 1974 66100
37 144 LAUSSEL PIERRE ME 3 vélo sport saint affricain 03:54:49 35,26 37 1955 12490
38 480 ARRIGHI OLLIVIER MC 13 le beau vélo marseille 03:54:50 35,26 38 1969 13830
39 816 BOUISSIERE SEBASTIEN MB 9 team montagnac ac 03:54:50 35,26 39 1983 34260
40 821 BOUAD GEREMI MB 10 asc carcassonne 03:54:51 35,25 40 2015 11390
41 25 BARCELO THIERRY MD 8 cprs pins justaret villate 03:54:52 35,25 41 1963 31270
42 452 CABAL CHRISTIAN MC 14 usc cyclisme colomiers 03:54:52 35,25 42 1967 lasserre
43 523 RAYNAL PHILIPPE MC 15 tbc 34 03:54:52 35,25 43 1969 34725
44 869 CORIDON CECIL MB 11   03:54:53 35,25 44 1980 34150
45 861 ROUGIER YANNICK MB 12 ac clapiers 03:54:53 35,25 45 1979 34160
46 124 DANGLOT PHILIPPE ME 4 alva valence d' agen 03:54:54 35,25 46 1954 46000
47 139 CHARRE PASCAL MC 16 roue sportive meximieux 03:54:54 35,25 47 1972 1800
48 447 LIEUTIER EMMANUEL MC 17 cyclo club rivesaltes 03:54:54 35,25 48 1971 66250
49 849 SKUPKE KRZYSZTOF MB 13 rsv werner otto 03:54:56 35,24 49 1977 82211
50 858 GARCERA NICOLAS MB 14 gfny mont ventoux 03:54:57 35,24 50 1977 vaison la romaine
51 5 BECAM JEAN YVES ME 5 team cycliste choletais 03:54:57 35,24 51 1952 49300
52 84 SAVOIE PATRICK ME 6 vc pays de saint flour 03:54:57 35,24 52 1952 saint just
53 872 MERLE JULIEN MB 15 vcsalindres 03:54:58 35,24 53 2015 30340
54 178 MONTIEL JEAN PIERRE MD 9   03:54:59 35,24 54 1964 13700
55 42 RUSINOWICZ DANIEL MD 10 svc nimes 03:55:05 35,22 55 1965 moulezan
56 804 THISSE GUILLAUME MB 16   03:55:19 35,19 56 1977 31860
57 488 LEPETIT SYLVAIN MC 18 cyclosport néris les bains 03:56:29 35,01 57 1968 3410
58 410 PERROUX DAVID MC 19 velo club des alpilles 03:56:34 35 58 1972 13630
59 489 CABROLIER STÉPHAN MC 20 ccs34 03:56:41 34,98 59 1974  
60 802 LEVACHER ALEXANDRE MA 8 elan cycliste balarucois 03:56:41 34,98 60 1994 34770
61 40 DOBBELAERE FRANCK MD 11 istres sport cyclisme 03:57:43 34,83 61 1965 13800
62 39 ROLLAND JEAN-MARC ME 7 team cvc carcassonne 03:57:43 34,83 62 1954 11570
63 459 GUILLAUME PIERRE MC 21 crocos d'airain nimes triathlon 03:57:43 34,83 63 1966 30820
64 405 LEVACHER MARC MC 22 elan cycliste balarucois 03:57:44 34,83 64 1966 34770
65 856 VALETTE BENJAMIN MB 17 vélo club melgorien mauguio carnon 03:58:07 34,77 65 1984 34130
66 544 DONNADIEU JEAN-YVES MC 23 team montagnac ac 03:59:00 34,64 66 1973 34230
67 19 ROQUES JEAN PAUL ME 8 cprs pins justaret vilatte 03:59:02 34,64 67 1955 31170
68 134 CARRE DIDIER MD 12 couserans cyclisme 03:59:03 34,64 68 1961 9200
69 445 THIRY FREDERIC MC 24   03:59:03 34,64 69 1971 38240
70 113 RAFFIN DIDIER ME 9 avc aix en provence 03:59:03 34,64 70 1952 13080
71 481 OZAROVSKI OLIVIER MC 25 association cyclisme clapiers 03:59:03 34,64 71 1972 34090
72 847 RUFFIE GUILLAUME MA 9 cprs pins justaret 03:59:03 34,64 72 1990 31100
73 503 CAUSSE BENOIT MC 26 tbc34 03:59:03 34,64 73 1973 34150
74 827 BECARUD THOMAS MA 10 team velo 101 03:59:04 34,63 74 1997  
75 52 ROCHE JEAN FRANÇOIS ME 10 chamrousse team cyclosport 03:59:04 34,63 75 1955 84600
76 486 DOVERGNE PHILIPPE MC 27 tbc34 03:59:04 34,63 76 1966 34725
77 830 DAUDÉ STÉPHANE MB 18 vélo club mende lozère 03:59:04 34,63 77 1978 48000
78 441 CALDERON GHISLAIN MC 28   03:59:04 34,63 78 1973 30210
79 418 ROUSSEL VINCENT MC 29 istres sport cyclisme 03:59:04 34,63 79 1974 13500
80 491 ANDREOTTI PATRICK MC 30 vtt garlaban 03:59:05 34,63 80 1966 13190
81 419 GERMA XAVIER MC 31 les maillons libres 03:59:05 34,63 81 1966 31120
82 109 STADLER ERIC MD 13 velo club pringy 03:59:06 34,63 82 1960 74160
83 848 DELALONDRE GINO MA 11 triathlon toulouse métropole 03:59:06 34,63 83 1989 31100
84 815 FORDE RONAN MA 12 galway bay cc 03:59:06 34,63 84 1991  
85 811 MOLENE SEBASTIEN MB 19 cprs pins justaret vilatte 03:59:07 34,63 85 1977 31270
86 404 CALLET JEAN PHILIPPE MC 32 uzes vélo club 03:59:07 34,63 86 1974 30700
87 496 BEURVILLE WILLY MC 33 team montagnac ac 03:59:08 34,62 87 1973 34290
88 813 FELTESSE BENOIT MB 20 sete thau triathlon 03:59:08 34,62 88 1977 34140
89 860 ROUVIERE ADRIEN MA 13 team gso 03:59:08 34,62 89 1995  
90 427 CAMPOS XAVIER MC 34 cyclotourisme realmontais 03:59:08 34,62 90 1970 11000
91 119 LESCASTREYRES MICHEL ME 11 gourdan polignan comminges cycliste 03:59:09 34,62 91 1952 31130
92 190 CENTELLES JEAN MARC MD 14   03:59:09 34,62 92 1963  
93 50 RICHARD MICHEL MF 1 vc les artigues de lussac 03:59:10 34,62 93 1949 33500
94 461 NENZI JACQUES MC 35 vtt garlaban 03:59:11 34,62 94 1966 13820
95 162 GOURON MICHEL MD 15 team montagnac ac 03:59:12 34,61 95 1964 34000
96 140 KOPIETZ CAROLINE FW1 1 rsv werner otto 03:59:13 34,61 1 1980 82211
97 517 VINCENT JEAN-FRANCOIS MC 36 vtt du garlaban 03:59:23 34,59 96 1983 13008
98 62 POTHON FREDERIC MD 16 velo club vailhauquois 2000 04:02:38 34,12 97 1960 34380
99 850 BARAT MERRY MA 14 girondins de bordeaux 04:02:43 34,11 98 1986 33700
100 846 LORTHIOIR PAUL-EMILE MA 15 roue d'or sanaryenne 04:03:18 34,03 99 1990 wattrelos
101 818 BELLEC IRWIN MA 16 cprs pins justaret villate 04:04:46 33,83 100 1990 31700
102 829 BOYER BENJAMIN MA 17 cprs pins justaret villate 04:04:46 33,83 101 1993 31700
103 10 FERRER THIERRY MD 17   04:05:22 33,74 102 1961 34500
104 463 BAILLY JEAN MC 37   04:05:22 33,74 103 1967 11220
105 192 SIMON YVES ME 12 ciclo auxere 04:05:23 33,74 104 1953 89460
106 403 VAN BOGERIJEN MARK MC 38 vcll pezenas 04:05:24 33,74 105 1969 34720
107 836 LEY ANTOINE MA 18   04:05:24 33,74 106 1989 34090
108 27 SCHWAB PATRICK MF 2 team cres cyclisme 04:05:24 33,74 107 1950 34160
109 540 BOULON CHRISTOPHE MC 39 as villemur 04:05:24 33,74 108 1975 31340
110 464 PIBAROT DIDIER MC 40 cprs pins justaret villate 04:05:25 33,74 109 1968 31860
111 135 PARTESANA MICHEL ME 13 cprs pins justaret villate 04:05:26 33,74 110 1952 31170
112 822 BALDET PIERRY MA 19   04:05:27 33,73 111 1986 baillargues
113 145 BEAUMOND PHILIPPE MD 18 vtt du garlaban 04:05:28 33,73 112 1959 13400
114 437 GUIZARD JEAN FRANÇOIS MC 41 cc rivesaltes 04:05:29 33,73 113 1970 66420
115 501 TREADWELL PHILIP MC 42 cvc carcassonne 04:07:09 33,5 114 1975 11000
116 38 SAZ ROGER MD 19 istres sport cyclisme 04:07:14 33,49 115 1958 13270
117 853 FILLON ARNAUD MA 20 montpellier agglo triathlon 04:08:07 33,37 116 1987 34070
118 877 GOUX NICOLAS MB 21 cahors triathlon 04:08:12 33,36 117 1979 34120
119 73 ARBES EMILE MF 3 patrouille eco cyclo 04:08:36 33,31 118 1948  
120 44 PLET DIDIER MD 20 team cvc carcassonne 04:08:36 33,3 119 1964 11000
121 20 VILLAIN PATRICK MF 4 menestreau en villette 04:08:37 33,3 120 1949 41600
122 21 LASSARA ALAIN MF 5 ac francheleins 04:08:37 33,3 121 1950 1090
123 450 FABRE PHILIPPE MC 43 avc nimes 04:08:39 33,3 122 1966 30900
124 101 DELARBRE JEAN MD 21 velo club salindres 04:08:39 33,3 123 1964 30330
125 64 LAUREAU ROBERT MD 22 cprs pins justaret-villate 04:08:39 33,3 124 1958 31470
126 493 RAMOUSSE ARNAUD MC 44 cprs pins justaret villate 04:08:39 33,3 125 1972 31170
127 402 MONGLON ÉRIC MC 45 vélo sport st affricain 04:08:40 33,3 126 1972 12100
128 416 MARTEL JEAN-CLAUDE MC 46 cprs pins-justaret villate 04:08:40 33,3 127 1968 31500
129 132 MICHAUD PATRICK MD 23 nîmes 04:08:40 33,3 128 1965 30000
130 186 KALS BETTY FW1 2 team montagnac ac 04:08:40 33,3 2 1982 34770
131 181 PINA JEAN CLAUDE MD 24 cprs pins justaret villate 04:08:41 33,3 129 1959 31860
132 484 ROYER DAVID MC 47   04:08:41 33,29 130 1973 serignan
133 147 THORE JEAN PHILIPPE MD 25 fjep varilhes 04:08:41 33,29 131 1959 31400
134 543 PAYAN LIONEL MC 48   04:08:41 33,29 132 1966 63320
135 114 PASCAL THIERRY MD 26 sprinter vélo cub nimois 04:08:42 33,29 133 1963 30600
136 817 LESPAGNOL LAURENT MB 22 patrouille eco cyclo 04:08:42 33,29 134 1976  
137 172 BANON JEAN LOUIS MD 27 team montagnac ac 04:08:42 33,29 135 1963 34720
138 196 MUR GEORGES ME 14   04:08:42 33,29 136 1954  
139 59 BERTRAND MARC MD 28 istres sport cyclisme 04:08:42 33,29 137 1960 13800
140 76 IVANOVA ELENA FW2 1 patrouille eco cyclo 04:08:42 33,29 3 1966  
141 807 GRIALOU WILLIAM MB 23 montpellier agglo triathlon 04:08:43 33,29 138 1983 34570
142 494 NOGUEIRA FERNAND MC 49 uzes 04:09:21 33,21 139 1970 30320
143 53 BLANCHARD PATRICK MD 29 club neutre 04:09:42 33,16 140 1960 11200
144 152 MASSOL ANDRÉ MD 30 ucd requista 04:10:30 33,05 141 1961 12170
145 83 LAURES BRUNO MD 31 cocgp 30 04:10:39 33,03 142 1960  
146 191 BILLARD JEAN-LOUIS MD 32 team montagnac ac 04:10:53 33 143 1961 34270
147 495 MARQUES FERNANDO MC 50 svcn 04:11:11 32,96 144 1973 30129
148 435 MATHIEU HUBERT MC 51 mousquetaires cyclistes pradéens 04:11:30 32,92 145 1972 34190
149 490 PASCAL RÉGIS MC 52 vcml 04:12:20 32,81 146 1968 48000
150 412 VINET STEPHANE MC 53 saleille cyclo club 04:14:01 32,59 147 1967 66690
151 876 DURAND MATHIAS MA 21   04:14:02 32,59 148 1990  
152 507 GODELLE FRANCK MC 54 team montagnac ac 04:14:02 32,59 149 1967 34230
153 99 DEMOL JEAN PIERRE MD 33 velo club des alpilles 04:14:24 32,55 150 1964 13210
154 448 GARCIA RICHARD MC 55 canoes avenir cycliste 04:14:59 32,47 151 1975 66490
155 506 ADEL MOHAMMED MC 56 rodez tri 12 04:15:40 32,38 152 1971 46100
156 433 BARBOTEU MIKAËL MC 57 triox 04:15:41 32,38 153 1972 66180
157 542 PAQUET DAVID MC 58 cca 04:15:41 32,38 154 1970 63270
158 420 DE OLIVEIRA ARTHUR MC 59 us nohicoise 04:15:42 32,38 155 1974 82370
159 90 TRENZA JOSÉ ME 15 vélo club melgorien 04:15:46 32,37 156 1953 34130
160 68 WODEY ARNAUD MD 34 sprinter velo club nimois 04:16:04 32,33 157 1960 30230
161 535 PAPPALARDO STÉPHANE MC 60 elan cycliste balarucois 04:17:42 32,13 158 1967  
162 536 BRECHOT LAURENT MC 61   04:17:55 32,1 159 1969  
163 814 MARTINEZ FRANCK MB 24 chameaux de beziers triathlon 04:17:55 32,1 160 1977 34490
164 26 CORNU MAURICE MF 6 comite de bourgogne 04:17:55 32,1 161 1950 89700
165 128 LE BOUCHER XAVIER MC 62 toulon triathlon 04:17:56 32,1 162 1970 la crau
166 180 BENDAHMANE HAMID MD 35 association velo club la ciotat 04:17:56 32,1 163 1959 83270
167 65 LEBRUN BERNARD ME 16   04:17:56 32,1 164 1951 66750
168 487 BOGUMIL JORG MC 63 vc mauguio 04:17:57 32,1 165 1966 34130
169 14 GIGUET THIERRY ME 17   04:17:58 32,1 166 1954 84290
170 110 PUECH GILLES ME 18 team cvc carcassonne 04:17:58 32,1 167 1955 11570
171 855 BLANC ERIC MB 25   04:17:58 32,1 168 1978 34980
172 504 LECERF WILLIAM MC 64   04:17:59 32,1 169 1974 34090
173 66 NAEGELY GUY ME 19 acs peugeot 04:17:59 32,1 170 1951 68800
174 839 GELSOMINO OLIVIER MB 26   04:18:00 32,09 171 1985 montpellier
175 499 VIDAL SERGE MC 65 mauguio carnon 04:18:00 32,09 172 1972 34400
176 457 TOUBAS SEBASTIEN MC 66 cc rivesaltes 04:18:00 32,09 173 1972 66240
177 33 WEISS ALEXANDRE MD 36 cprs pins justaret-villatte 04:18:00 32,09 174 1960 31860
178 111 ALLEGRE MICHEL ME 20 cyclo club de castries 04:18:01 32,09 175 1955 30820
179 533 MICHEL ERIC MC 67 team cres 04:18:01 32,09 176 1970 34270
180 80 CAMBOU CHRISTIAN MD 37 union cycliste fumel monsempron-libos 04:18:01 32,09 177 1962 46700
181 411 ROUAUD DAVID MC 68 uzes velo club 04:18:01 32,09 178 1970 30700
182 200 HOSPITAL ANDRÉ ME 21 ec vd 04:18:03 32,09 179 1954 12850
183 31 ARRAGON DANIEL ME 22 espoir cycliste nimois 04:18:05 32,08 180 1953 30128
184 198 CHAUMARAT LUCIEN ME 23 team montagnac ac 04:18:06 32,08 181 1955  
185 69 BOISSET THIERRY MD 38 cprs pins justaret-villate 04:19:43 31,88 182 1962 31870
186 143 BRUNEL FRANÇOIS MD 39 cprs pins justaret villate 04:19:43 31,88 183 1964 seysses
187 446 RIGAUD OLIVIER MC 69 tri ox 04:19:43 31,88 184 1972 66100
188 432 GILLES DIDIER MC 70 montpellier agglo triathlon 04:19:44 31,88 185 1967 34090
189 478 AT FRÉDÉRÉIC MC 71 flèche du midi 04:19:44 31,88 186 2015 34000
190 819 RAHAL JEAN-PIERRE MB 27 vtt du garlaban 04:19:45 31,88 187 1976 13400
191 131 BRESSON JEAN-PIERRE MD 40 caveirac vtt club 04:19:50 31,87 188 1958 30820
192 468 ARGENTIN GÉRALD OLIVIER MC 72 balma olympique cyclisme 04:22:00 31,6 189 1972 31130
193 440 COURVOISIER RENALD MC 73 team montagnac ac 04:22:01 31,6 190 1975 34120
194 97 FONTAINE PATRICK ME 24 union sportive cololmiers cycliste 04:22:01 31,6 191 1954 31770
195 106 PASZTERNAK LUDOVIC MD 41 sl vence 04:22:01 31,6 192 1962 6140
196 812 RUZAFA CHRISTOPHE MB 28 vs narbonnais 04:22:02 31,6 193 1978 11200
197 460 BOURDEL PIERRE MC 74 vcll pézenas 04:22:02 31,6 194 1968 34140
198 7 VAZQUEZ THIERRY MD 42 tri run frontignan 04:22:03 31,6 195 1964 34110
199 30 BASSERY ANDRE MF 7 team eco cyclo 04:22:04 31,59 196 1944 47000
200 51 DANIS PASCAL ME 25 a.o.b. 04:22:05 31,59 197 1953 30100
201 177 WHITE ROBERT MD 43 cprs pins justaret villate 04:22:05 31,59 198 1962 31820
202 805 SCHELLEKENS GREGORY MB 29 avignon le pontet triathlon 04:22:06 31,59 199 1984 13570
203 439 PUJOL PASCAL MC 75 cprs pins justaret villate 04:22:09 31,58 200 1974  
204 444 DECAUX SEBASTIEN MC 76 uc fumel monsempron-libos 04:22:18 31,57 201 1970 47140
205 169 BOUISSOU PATRICK MD 44 ecvd 04:22:28 31,55 202 1959 saint cyprien sur dourdou
206 159 LIMOUZY DANIEL MD 45 vcll pézenas 04:22:40 31,52 203 1956 34120
207 844 MARTY GAËL MB 30 bmc 04:23:01 31,48 204 1984 34140
208 193 XENOPHANE PIERRE ME 26   04:23:13 31,46 205 1951  
209 34 GILLES ROLAND ME 27 albi velo sport 04:23:13 31,46 206 1954 lafenasse
210 442 HUSSON BERNARD MC 77 girondins de bordeaux 04:23:31 31,42 207 1968 33140
211 482 FISTON PHILIBERT MC 78 ac clapier 04:23:53 31,38 208 1968 34080
212 142 SCANO PATRICK MD 46 ccs34 04:24:30 31,3 209 1965 34570
213 492 ANDIOEN CHRISTOPHE MC 79   04:24:49 31,27 210 1966 30730
214 70 STANESCO JOEL ME 28 club vtt cyclo trelivan 04:27:43 30,93 211 1951 22100
215 150 DECOURTYE PHILIPPE MF 8 velo club melgorien mauguio 04:27:44 30,93 212 1950 34130
216 810 DARROSIERS FABIEN MB 31 istres sport cyclisme 04:28:15 30,87 213 1985 13800
217 61 BONNEFOY ALAIN MF 9 velo club melgorien 04:28:36 30,83 214 1948 34130
218 155 DIVE PIERRE MD 47   04:28:45 30,81 215 1962 15100
219 801 MERCIER BORIS MB 32 tri run frontignan 04:29:03 30,77 216 1979 34560
220 537 JOUAULT BENOIT MC 80 sud velo 04:29:46 30,69 217 1970  
221 187 FRAISSE JEAN MARIE ME 29   04:29:46 30,69 218 1953 34430
222 75 BIZIERES MICHEL MF 10 patrouille eco cyclo 04:29:47 30,69 219 1948  
223 449 POULEUR PATRICK MC 81 canoes avenir cycliste 04:29:49 30,69 220 1975 66000
224 35 CARCERONI GILLES CLAUDIA FW3 1 albi velo sport 04:29:49 30,69 4 1962 lafenasse
225 456 GARNIER FRANCK MC 82 val d'europe team cycliste 04:29:50 30,69 221 1973 6410
226 60 BARO MARC MD 48 velo club mende lozere 04:29:51 30,68 222 1961 48000
227 47 NAVARRO SERGE MD 49 velo club de port de bouc 04:30:08 30,65 223 1964 13500
228 475 OWENS KEVIN MC 83 galway cycling club 04:31:11 30,53 224 1972  
229 879 LAFORGUE ROBIN MA 22 as villemur 04:31:30 30,5 225 1992 31340
230 541 LAFORGUE JEAN MICHEL MC 84 varilhes fjep 04:31:46 30,47 226 1968 9130
231 197 AUBREE MARC MW3 2 uasg 04:31:50 30,46 227 1960 92210
232 422 ESQUENET NICOLAS MC 85   04:31:51 30,46 228 1972 montpellier
233 120 FRAISSE ROBERT ME 30   04:31:52 30,46 229 1954 42170
234 199 TAJAN ALAIN ME 31 fjep varilhes 04:31:52 30,46 230 1953 9130
235 103 RODRIGUEZ RICHARD MD 50 cyclo sport ciotaden 04:31:53 30,45 231 1956 13600
236 179 CRESPIN FRANCK MD 51 asph 04:31:54 30,45 232 1963 34830
237 462 MARTY PASCAL MC 86 carcassonne 04:31:54 30,45 233 1969 66760
238 55 CLEMENTE JEAN MARC MD 52 cprs pins justaret villate 04:33:38 30,26 234 1965 31600
239 413 PALACIAN PASCAL-PIERRE MC 87 cprs pins justaret villate 04:33:38 30,26 235 1973 seysses
240 431 SENEGAS LAURENT MC 88 cprs pins justaret villate 04:33:44 30,25 236 1970 31650
241 414 CASTEX PATRICK MC 89 cprs pins justaret villate 04:33:50 30,24 237 1966 31600
242 182 BOLLARO ALAIN MD 53 cprs pins justaret villate 04:33:50 30,24 238 1962 31970
243 820 FRANK BARRETT MB 33 galway bay cc 04:34:10 30,2 239 1977 ....
244 425 PEDULLA BRUNO MC 90 la fleche floracoise 04:34:47 30,13 240 1969 48000
245 808 VANHERSECKE THOMAS MB 34 vo2 triathlon 04:34:54 30,12 241 1981 34570
246 514 RICO MICHEL MC 91 istres sports triathlon 04:35:40 30,04 242 1973 13118
247 539 BABY DANIEL MC 92 cousevans cycliste 04:36:09 29,98 243 1968  
248 115 HERCOT MICHEL MD 54 fleche du midi 04:36:11 29,98 244 1961 34110
249 129 DAURIAT BRUNO MD 55 la flèche du midi 04:36:11 29,98 245 1964 34000
250 163 ESQUENET PATRICK MD 56   04:36:15 29,97 246 1965 boulogne sur mer
251 408 OURADOU FABRICE MC 93   04:36:51 29,91 247 1969 34490
252 183 ARCHAMBAULT GILLES MD 57 montpellier agglo triathlon 04:37:44 29,81 248 1960 34070
253 138 BIANCO GEORGES ME 32 uc fumel monsempron-libos 04:38:20 29,75 249 1953 47500
254 528 LACOUR LAURENT MC 94   04:38:22 29,74 250 1968 34570
255 851 VALETTE FABRICE MB 35 chameaux de beziers 04:38:22 29,74 251 1977 34370
256 148 FEDERSPIELD RAYMOND ME 33 sprinter velo club nimois 04:38:29 29,73 252 1954 34980
257 32 SCHNEIDER DIDIER MD 58 vélo club des alpilles 04:38:47 29,7 253 1964 13103
258 189 NICOLLE JEAN MARIE MF 11 team montagnac ac 04:38:48 29,7 254 1946 34070
259 116 VALETTE PHILIPPE MD 59 cprs pins justaret-villate 04:39:45 29,6 255 1962 31870
260 18 MONTEILLET PHILIPPE ME 34   04:40:43 29,49 256 1955 plaisir
261 130 LAGUERRE ERIC MD 60 ariegeoise cyclo club 04:41:37 29,4 257 1961 9310
262 835 THIBAUT JACQUIN MB 36 union sportive colomiers cyclisme 04:41:39 29,4 258 1976 31150
263 454 FREDON SYLVAIN MC 95 vc cosnac 04:42:33 29,3 259 1971 19600
264 63 BIGARE GERARD MD 61 cprs pins justaret-villate 04:42:33 29,3 260 1958 31470
265 532 CHALLOT ERIC MC 96   04:43:37 29,19 261 1967  
266 91 BARTHEZ JEAN-FRANÇOIS MD 62   04:43:51 29,17 262 1965 34140
267 17 MONTIGNY ALAIN MH 1 us villenavaise 04:44:06 29,14 263 0000-00-00 33240
268 421 MOLINÉ BENOÎT MC 97 cac66 04:44:31 29,1 264 1974 66680
269 89 LEHUBY DANIEL MF 12 velo club de saleilles 04:45:34 28,99 265 1950 66280
270 156 DELCROIX DANIEL ME 35 asph 04:45:43 28,98 266 1955 bouzigues
271 826 DENEVE ERIC MB 37   04:46:09 28,93 267 1979 34920
272 121 KEETMAN MARGREET FW2 2   04:46:44 28,88 5 1969 81250
273 49 VINSON PHILIPPE MD 63 vélo club agathois 04:47:00 28,85 268 1965 34300
274 6 THUREAU GISÈLE FW3 3 team cycliste choletais 04:47:05 28,84 6 1953 49300
275 122 MONTET ERIC MD 64 caveirac vtt 04:47:06 28,84 269 1963 30310
276 157 CORTES MICHEL MD 65   04:47:07 28,84 270 1960 34130
277 28 ORIVELLE DENIS ME 36 uzes velo club 04:47:07 28,84 271 1953 30700
278 29 BREL ROMAIN MF 13 uzes vélo club 04:47:10 28,83 272 1947 saint maximin
279 161 FABRE STEPHANE MD 66 a.c.lattes 04:47:10 28,83 273 1959 34130
280 188 GAY JEAN PIERRE MD 67   04:47:12 28,83 274 1960 34680
281 530 GADAY GHYSLAIN MC 98 aseg 04:47:12 28,83 275 1973 34680
282 467 VERGNES GILLES MC 99   04:47:32 28,8 276 1971 11110
283 67 SOLDEVILA JOSÉ MD 68   04:48:00 28,75 277 1963 vinassan
284 526 PASCAL FRANCOIS MC 100   04:48:12 28,73 278 1975 34500
285 838 BASCOU JÉRÔME MB 38   04:48:29 28,7 279 1984 11100
286 531 FECCI SERGE MC 101 v.c.c.biterrois 04:48:54 28,66 280 1969 marseillan
287 401 PROKOP STEVE MC 102 vélo club magalas 04:49:27 28,61 281 1969 34480
288 151 AZÉMAR CLAUDE MD 69 union cycliste réquista 04:49:37 28,59 282 1958 12170
289 505 TREMOLIERES MARC MC 103 ucd requista 04:49:47 28,57 283 1971 31200
290 455 MOSS NEIL MC 104   04:50:03 28,55 284 1970 34210
291 840 PLANCQ ARNAUD MA 23 us montauban 04:50:11 28,53 285 1992 82000
292 87 COUDERC JEAN MARIE MF 14 uc fumel monsempron-libos 04:50:41 28,48 286 1945 47500
293 93 ROUSSILLE DOMINIQUE MD 70 uc fumel monsempron-libos 04:50:42 28,48 287 1959 fumel
294 95 MATIAS ANTOINE MD 71 uc fumel monsempron-libos 04:50:42 28,48 288 1960 47500
295 123 RABOT PATRICK MD 72 union cycliste fumel monsempron-libos 04:50:43 28,48 289 1960 47500
296 94 DELPORTE ALAIN MD 73 uc fumel monsempron-libos 04:50:43 28,48 290 1959 47500
297 424 CHAPIRON LIONEL MC 105   04:52:49 28,28 291 1973 34160
298 96 BADOSA SYLVAIN ME 37 canoes avenir cycliste 04:52:49 28,28 292 1953 66300
299 434 VIALA JEAN LUC MC 106 uzes velo club 04:53:17 28,23 293 1967 30700
300 195 VLADIMIROVA MARIA FW2 3 sud velo 04:54:07 28,15 7 1973  
301 472 IMMERS FREDERIC MC 107 sudvelo 04:58:13 27,76 294 1968 34430
302 423 FOURREAUX ERIC MC 108 cprs pins justaret villate 04:58:52 27,7 295 1968 31770
303 127 FONTENIT ALAIN MF 15   04:59:22 27,66 296 1946 30600
304 126 GARDES JEAN-PAUL MD 74 caveirac bike club 05:00:25 27,56 297 1956 30240
305 430 CORTIAL PATRICK MC 109 us nohicoise 05:00:25 27,56 298 1969 82370
306 107 DE MARCO SANDRINE FW1 3 crocos d'airain 05:01:12 27,49 8 1976  
307 79 LACOSTE JEAN LUC MD 75 patrouille eco cyclo 05:04:21 27,2 299 1961  
308 443 DECHAINE STEPHANE MC 110   05:04:21 27,2 300 1968 9100
309 154 VEYROND GILBERT MD 76 vc saint flour 05:04:22 27,2 301 1956 15100
310 522 AMARDEILH LAURENT MC 111 varilhes 05:04:22 27,2 302 1974 9120
311 502 BENOIT FREDERIC MC 112   05:04:45 27,17 303 1970 31000
312 98 CUCUROU CHRISTOPHE MD 77   05:04:46 27,17 304 1963 34790
313 868 VELATI JEROME MB 39 triathlon grande motte 05:05:08 27,14 305 1981 34070
314 825 FILHOL BENOIT MB 40 uc monsempron libos 05:05:54 27,07 306 1980 47150
315 78 BARRERE JEAN PIERRE MD 78 uc fumel monsempron libos 05:05:54 27,07 307 1959 47150
316 88 BASCOLE JEAN MARC MD 79 uc fumel monsempron libos 05:05:54 27,07 308 1963 47300
317 105 POTTS JOHN MD 80 vcll pezenas 05:06:31 27,01 309 1957 34120
318 133 KAPLANSKI BERNARD MD 81   05:06:38 27 310 1956 34070
319 102 DELARBRE PATRICIA FW3 4 velo club de salindres 05:06:44 26,99 9 1962 30330
320 41 JOFRE FERNAND MF 16 cc pyreneen 05:07:08 26,96 311 1947 82110
321 471 DELAGE FREDERIC MC 113 cs la bouilladisse 05:09:18 26,77 312 1973 13790
322 809 BALLET-BAZ JEREMIE MB 41 triathlon club la grande motte 05:10:21 26,68 313 1983  
323 81 THOMAS GILLES MD 82 us creteil 05:10:21 26,68 314 1959 94000
324 117 SCHMITT BRUNO MF 17 uc fumel 05:10:43 26,65 315 1950 47500
325 118 BIAU FRANCIS MF 18 uc fumel 05:10:44 26,65 316 1940 47230
326 85 CAMPOY JOSE MF 19 uc fumel monsempro-libos 05:10:44 26,65 317 1949 47370
327 125 GROUX JEAN-MARIE MF 20 trebes 05:11:49 26,55 318 1945 11600
328 16 PATRONE GEORGES MD 83   05:12:43 26,48 319 1958 34830
329 57 FAUCHER FRANCIS MD 84 as legrand limoges 05:12:43 26,48 320 1956 87920
330 45 LAGEON DANIEL ME 38 as legrand limoges 05:12:44 26,48 321 1952 87410
331 538 ZWOLSKA FREDERIC MC 114 rillieux tri 05:15:04 26,28 322 1971 69004
332 108 DEL FABBRO MARC MD 85 individuel 05:15:12 26,27 323 1962 31820
333 46 DELER WILLIAM MD 86 uzes velo club 05:15:47 26,22 324 1959 30700
334 833 THOMAS SIMON MA 24 saint grégoire triathlon 05:15:48 26,22 325 1989 31500
335 82 BERTEZENE GEORGES MF 21 vcll pézénas 05:15:48 26,22 326 1947 34120
336 479 DAUMAS CLAUDE MC 115 velo club lezignanais 05:16:25 26,17 327 1968 lezignan corbieres
337 185 SERREAU ROGER MF 22 ebv 05:17:32 26,08 328 1946 46400
338 465 LAMBOLEY CHRISTOPHE MC 116 vo2 triathlon 05:20:03 25,87 329 1973 34090
339 36 LAGAUCHE HERVÉ MD 87 uzès vélo club 05:21:07 25,78 330 1958 30700
340 466 DE LORGERIL OLIVIER MC 117   05:24:58 25,48 331 1970 34160
341 834 POLFLIET VINCENT MB 42   05:28:57 25,17 332 1983 67240
342 500 STARLING SHANE MC 118 sud velo ne jetez plus 05:32:31 24,9 333 1971 montpellier
343 497 LOPES DAVID MC 119   05:32:33 24,9 334 1972 34725
344 525 VERGEZ FABRICE MC 120 aussonne 05:34:10 24,78 335 1975 31840
345 149 LARIÉ JOSEPH MD 88 cyclo club leguevin 05:34:10 24,78 336 1960 31820
346 1672 VERGEZ FABRICE MC 121 aussonne 05:34:11 24,78 337 1975 31840
347 458 FONTUGNE LUDOVIC MC 122   05:34:12 24,78 338 1970 34000
348 476 RAULET ARNAUD MC 123   05:38:31 24,46 339 1971 1190
349 477 HAGNIER FRANCK MC 124   05:38:31 24,46 340 1969 paulhan
350 451 JOHN MONGAN MC 125 tri lakes triathlon club 05:40:57 24,28 341 1973 co galway
351 301 SAINT LEGER THIERRY MD 89 la flèche floracoise 05:42:20 24,19 342 1957  
352 23 PORCHER YVES MF 23 etoile cycliste ddu don 05:43:52 24,08 343 1946 44170
353 534 ESQUENET THIERRY MC 126 asso st omer 05:47:22 23,84 344 1969 62219
354 12 HARDMAN JACKIE FW3 5 barracuda tri club 05:50:10 23,65 10 1954 hu17 8ge
355 11 HARDMAN PETER MF 24 barracuda tri 05:50:10 23,65 345 1950 hu17 8ge
356 469 CANDELIER ERIC MC 127   05:50:49 23,6 346 1967 34160
357 194 SEREVAT CHRISTINE FW3 6 vcl pezenas 05:56:34 23,22 11 1953 34550
358 92 SINTES ALAIN MF 25 pezenas vcll 05:56:34 23,22 347 1944 34550
359 22 DOUSSAN ROBERT ME 39 tobesport 06:07:55 22,5 348 1951 34980
360 4 FOUCHE THOMAS MD 90   00:00:00 5,75 349 1965 31810
361 54 LACHENY PASCAL MD 92 as legrand limoges 87 00:00:00 5,75 350 1961 31470
362 58 MURET JEAN ME 40   00:00:00 5,75 351 1953 82110
363 104 BIZIEN PHILIPPE MD 94 cyclo club rivesaltes 00:00:00 5,75 352 1965 66240
364 160 RUBIO ERIC MD 91 team montagnac ac 00:00:00 5,75 353 1963 34730
365 184 LUNN ANDREW MD 93   00:00:00 5,75 354 1963 hu17
366 843 VIX ROMAIN MA 25 ac orange 00:00:00 5,75 355 1991 84850
367 436 ALASU JEAN PIERRE MC 128 vcc bitterois 03:43:58 4,98 356 1966 agde
368 498 GREGET REGIS MC 129 vélo sprint narbonnais 05:00:18 4,76 357 1972 11200